createdAt,value
2018-08-27T00:01:42.392Z,69.78
2018-08-27T00:04:11.430Z,70.69
2018-08-27T00:06:39.834Z,70.76
2018-08-27T00:09:10.053Z,71.38
2018-08-27T00:11:38.540Z,71.68
2018-08-27T00:14:06.968Z,71.49
2018-08-27T00:16:35.437Z,71.22
2018-08-27T00:19:04.019Z,70.96
2018-08-27T00:21:32.461Z,71.03
2018-08-27T00:24:00.816Z,71.36
2018-08-27T00:26:29.229Z,71.04
2018-08-27T00:28:57.678Z,71.41
2018-08-27T00:31:26.104Z,70.69
2018-08-27T00:33:54.533Z,70.61
2018-08-27T00:36:22.924Z,72.02
2018-08-27T00:38:51.336Z,71.50
2018-08-27T00:41:19.785Z,72.58
2018-08-27T00:43:48.205Z,71.77
2018-08-27T00:46:16.625Z,72.42
2018-08-27T00:48:45.032Z,74.34
2018-08-27T00:51:13.470Z,74.13
2018-08-27T00:53:41.841Z,75.08
2018-08-27T00:56:10.244Z,75.12
2018-08-27T00:58:39.231Z,74.15
2018-08-27T01:01:07.658Z,74.26
2018-08-27T01:03:36.176Z,74.28
2018-08-27T01:06:04.547Z,73.08
2018-08-27T01:08:32.934Z,72.76
2018-08-27T01:11:01.389Z,72.52
2018-08-27T01:13:29.798Z,73.59
2018-08-27T01:15:58.207Z,73.10
2018-08-27T01:18:26.655Z,72.67
2018-08-27T01:20:55.124Z,71.78
2018-08-27T01:23:23.844Z,72.94
2018-08-27T01:25:52.289Z,72.70
2018-08-27T01:28:21.403Z,73.22
2018-08-27T01:30:49.829Z,72.22
2018-08-27T01:33:18.341Z,73.08
2018-08-27T01:35:46.777Z,73.07
2018-08-27T01:38:15.300Z,74.45
2018-08-27T01:40:43.750Z,73.50
2018-08-27T01:43:12.163Z,74.67
2018-08-27T01:45:40.564Z,73.95
2018-08-27T01:48:09.037Z,74.55
2018-08-27T01:50:37.675Z,75.34
2018-08-27T01:53:06.131Z,74.77
2018-08-27T01:55:34.518Z,75.44
2018-08-27T01:58:03.213Z,76.26
2018-08-27T02:00:31.616Z,77.22
2018-08-27T02:03:00.021Z,77.75
2018-08-27T02:05:28.454Z,79.31
2018-08-27T02:07:56.860Z,79.77
2018-08-27T02:10:25.352Z,79.68
2018-08-27T02:12:53.748Z,80.16
2018-08-27T02:15:22.201Z,81.64
2018-08-27T02:17:50.688Z,81.22
2018-08-27T02:20:19.094Z,81.70
2018-08-27T02:22:47.492Z,82.05
2018-08-27T02:25:15.919Z,82.93
2018-08-27T02:27:44.354Z,83.04
2018-08-27T02:30:12.728Z,83.88
2018-08-27T02:32:41.116Z,83.19
2018-08-27T02:35:09.573Z,84.81
2018-08-27T02:37:37.912Z,83.99
2018-08-27T02:40:06.421Z,83.96
2018-08-27T02:42:34.793Z,83.74
2018-08-27T02:45:03.272Z,83.58
2018-08-27T02:47:31.687Z,83.74
2018-08-27T02:50:00.147Z,85.13
2018-08-27T02:52:28.523Z,84.72
2018-08-27T02:54:56.936Z,83.97
2018-08-27T02:57:25.404Z,84.77
2018-08-27T02:59:53.809Z,84.21
2018-08-27T03:02:22.208Z,85.00
2018-08-27T03:04:50.660Z,84.59
2018-08-27T03:07:19.126Z,84.22
2018-08-27T03:09:47.514Z,84.81
2018-08-27T03:12:15.954Z,85.24
2018-08-27T03:14:44.372Z,84.60
2018-08-27T03:17:12.765Z,84.99
2018-08-27T03:19:41.192Z,84.67
2018-08-27T03:22:09.614Z,84.89
2018-08-27T03:24:38.062Z,85.90
2018-08-27T03:27:06.535Z,85.96
2018-08-27T03:29:34.900Z,85.63
2018-08-27T03:32:03.345Z,85.53
2018-08-27T03:34:31.792Z,85.56
2018-08-27T03:37:00.273Z,86.06
2018-08-27T03:39:28.664Z,85.24
2018-08-27T03:41:57.145Z,85.49
2018-08-27T03:44:25.567Z,85.91
2018-08-27T03:46:54.000Z,85.50
2018-08-27T03:49:22.380Z,85.97
2018-08-27T03:51:50.801Z,85.95
2018-08-27T03:54:19.434Z,85.88
2018-08-27T03:56:47.809Z,86.78
2018-08-27T03:59:16.216Z,87.14
2018-08-27T04:01:44.629Z,87.37
2018-08-27T04:04:13.040Z,87.24
2018-08-27T04:06:41.454Z,87.19
2018-08-27T04:09:10.469Z,86.97
2018-08-27T04:11:38.849Z,87.50
2018-08-27T04:14:07.248Z,87.60
2018-08-27T04:16:35.660Z,87.90
2018-08-27T04:19:04.102Z,87.50
2018-08-27T04:21:32.705Z,88.18
2018-08-27T04:24:01.103Z,88.38
2018-08-27T04:26:29.514Z,87.90
2018-08-27T04:28:57.971Z,88.43
2018-08-27T04:31:26.392Z,88.18
2018-08-27T04:33:54.835Z,88.64
2018-08-27T04:36:23.273Z,88.93
2018-08-27T04:38:51.669Z,88.54
2018-08-27T04:41:20.076Z,88.33
2018-08-27T04:43:48.489Z,88.75
2018-08-27T04:46:16.880Z,88.91
2018-08-27T04:48:45.411Z,89.24
2018-08-27T04:51:13.851Z,89.13
2018-08-27T04:53:42.334Z,88.20
2018-08-27T04:56:10.781Z,88.84
2018-08-27T04:58:42.042Z,88.52
2018-08-27T05:01:10.460Z,89.42
2018-08-27T05:03:38.867Z,89.62
2018-08-27T05:06:07.250Z,88.71
2018-08-27T05:08:35.623Z,88.93
2018-08-27T05:11:04.083Z,88.98
2018-08-27T05:13:32.483Z,89.06
2018-08-27T05:16:00.868Z,89.70
2018-08-27T05:18:29.295Z,88.91
2018-08-27T05:20:57.720Z,89.72
2018-08-27T05:23:26.155Z,89.26
2018-08-27T05:25:54.732Z,89.67
2018-08-27T05:28:23.165Z,89.76
2018-08-27T05:30:51.637Z,89.83
2018-08-27T05:33:20.703Z,90.47
2018-08-27T05:35:49.072Z,89.93
2018-08-27T05:38:17.639Z,89.48
2018-08-27T05:40:46.032Z,89.46
2018-08-27T05:43:14.470Z,90.09
2018-08-27T05:45:42.863Z,90.38
2018-08-27T05:48:11.300Z,90.24
2018-08-27T05:50:39.660Z,89.62
2018-08-27T05:53:08.081Z,90.39
2018-08-27T05:55:36.477Z,90.26
2018-08-27T05:58:04.941Z,89.99
2018-08-27T06:00:33.331Z,90.49
2018-08-27T06:03:01.700Z,90.78
2018-08-27T06:05:30.120Z,90.03
2018-08-27T06:07:58.523Z,90.33
2018-08-27T06:10:26.936Z,90.47
2018-08-27T06:12:55.360Z,89.91
2018-08-27T06:15:23.789Z,90.64
2018-08-27T06:17:52.203Z,89.92
2018-08-27T06:20:21.061Z,90.08
2018-08-27T06:22:49.442Z,89.90
2018-08-27T06:25:19.252Z,90.81
2018-08-27T06:27:47.652Z,90.37
2018-08-27T06:30:16.081Z,90.45
2018-08-27T06:32:44.516Z,90.48
2018-08-27T06:35:12.906Z,90.32
2018-08-27T06:37:41.319Z,90.35
2018-08-27T06:40:09.832Z,90.55
2018-08-27T06:42:38.267Z,91.05
2018-08-27T06:45:07.264Z,90.56
2018-08-27T06:47:35.719Z,91.38
2018-08-27T06:50:04.240Z,91.11
2018-08-27T06:52:32.640Z,90.38
2018-08-27T06:55:01.016Z,90.76
2018-08-27T06:57:29.510Z,90.78
2018-08-27T06:59:57.898Z,91.36
2018-08-27T07:02:26.346Z,90.52
2018-08-27T07:04:54.824Z,90.83
2018-08-27T07:07:23.268Z,90.62
2018-08-27T07:09:51.674Z,90.84
2018-08-27T07:12:20.063Z,91.61
2018-08-27T07:14:48.465Z,91.09
2018-08-27T07:17:16.884Z,91.62
2018-08-27T07:19:45.358Z,91.15
2018-08-27T07:22:13.804Z,91.39
2018-08-27T07:24:42.177Z,91.11
2018-08-27T07:27:10.618Z,91.32
2018-08-27T07:29:39.125Z,91.93
2018-08-27T07:32:07.534Z,92.01
2018-08-27T07:34:35.954Z,91.35
2018-08-27T07:37:04.375Z,92.02
2018-08-27T07:39:32.817Z,91.88
2018-08-27T07:42:01.629Z,91.54
2018-08-27T07:44:30.111Z,91.68
2018-08-27T07:46:58.588Z,92.29
2018-08-27T07:49:27.859Z,91.58
2018-08-27T07:51:56.466Z,92.41
2018-08-27T07:54:24.913Z,92.38
2018-08-27T07:56:53.376Z,91.63
2018-08-27T07:59:21.757Z,92.42
2018-08-27T08:01:50.165Z,91.93
2018-08-27T08:04:18.641Z,92.49
2018-08-27T08:06:47.686Z,92.01
2018-08-27T08:09:16.145Z,92.11
2018-08-27T08:11:44.596Z,92.05
2018-08-27T08:14:13.134Z,92.64
2018-08-27T08:16:41.573Z,92.37
2018-08-27T08:19:10.032Z,92.84
2018-08-27T08:21:38.438Z,92.28
2018-08-27T08:24:07.011Z,93.17
2018-08-27T08:26:35.473Z,92.60
2018-08-27T08:29:03.930Z,92.91
2018-08-27T08:31:32.361Z,92.68
2018-08-27T08:34:00.788Z,92.83
2018-08-27T08:36:29.203Z,93.58
2018-08-27T08:38:57.665Z,94.20
2018-08-27T08:41:26.092Z,93.84
2018-08-27T08:43:54.496Z,93.93
2018-08-27T08:46:23.542Z,93.85
2018-08-27T08:48:52.033Z,94.14
2018-08-27T08:51:20.509Z,95.00
2018-08-27T08:53:48.968Z,94.99
2018-08-27T08:56:17.388Z,94.57
2018-08-27T08:58:45.883Z,94.58
2018-08-27T09:01:14.314Z,95.42
2018-08-27T09:03:42.737Z,95.07
2018-08-27T09:06:11.164Z,94.77
2018-08-27T09:08:39.696Z,94.79
2018-08-27T09:11:08.089Z,94.05
2018-08-27T09:13:36.538Z,94.80
2018-08-27T09:16:05.120Z,94.97
2018-08-27T09:18:33.831Z,94.96
2018-08-27T09:21:02.315Z,93.75
2018-08-27T09:23:30.848Z,93.34
2018-08-27T09:25:59.376Z,93.41
2018-08-27T09:28:27.773Z,92.76
2018-08-27T09:30:56.222Z,93.20
2018-08-27T09:33:24.638Z,92.94
2018-08-27T09:35:53.124Z,93.04
2018-08-27T09:38:21.588Z,92.23
2018-08-27T09:40:50.049Z,92.18
2018-08-27T09:43:18.784Z,92.44
2018-08-27T09:45:47.264Z,91.25
2018-08-27T09:48:15.699Z,90.91
2018-08-27T09:50:44.124Z,90.18
2018-08-27T09:53:12.597Z,89.85
2018-08-27T09:55:41.124Z,88.45
2018-08-27T09:58:09.525Z,88.25
2018-08-27T10:00:43.301Z,87.61
2018-08-27T10:03:11.692Z,86.87
2018-08-27T10:05:40.078Z,85.96
2018-08-27T10:08:08.489Z,87.05
2018-08-27T10:10:36.932Z,85.65
2018-08-27T10:13:05.532Z,86.07
2018-08-27T10:15:33.921Z,85.98
2018-08-27T10:18:02.393Z,84.26
2018-08-27T10:20:30.886Z,83.58
2018-08-27T10:22:59.388Z,82.72
2018-08-27T10:25:27.849Z,82.12
2018-08-27T10:27:56.278Z,81.31
2018-08-27T10:30:24.722Z,81.34
2018-08-27T10:32:53.169Z,81.74
2018-08-27T10:35:22.207Z,81.60
2018-08-27T10:37:50.667Z,83.22
2018-08-27T10:40:19.073Z,81.37
2018-08-27T10:42:47.580Z,81.51
2018-08-27T10:45:15.994Z,80.31
2018-08-27T10:47:44.436Z,78.96
2018-08-27T10:50:12.959Z,78.96
2018-08-27T10:52:41.329Z,79.02
2018-08-27T10:55:09.776Z,75.58
2018-08-27T10:57:38.241Z,75.17
2018-08-27T11:00:07.642Z,74.93
2018-08-27T11:02:36.077Z,75.27
2018-08-27T11:05:04.720Z,74.35
2018-08-27T11:07:33.461Z,75.53
2018-08-27T11:10:01.918Z,75.77
2018-08-27T11:12:30.460Z,73.54
2018-08-27T11:14:58.969Z,73.60
2018-08-27T11:17:27.420Z,72.40
2018-08-27T11:19:55.945Z,72.81
2018-08-27T11:22:24.363Z,71.59
2018-08-27T11:24:53.432Z,71.44
2018-08-27T11:27:21.894Z,71.85
2018-08-27T11:29:50.349Z,71.92
2018-08-27T11:32:18.825Z,71.30
2018-08-27T11:34:47.253Z,69.83
2018-08-27T11:37:15.732Z,66.59
2018-08-27T11:39:44.203Z,67.85
2018-08-27T11:42:12.661Z,68.21
2018-08-27T11:44:41.134Z,66.88
2018-08-27T11:47:10.452Z,66.50
2018-08-27T11:49:38.894Z,66.18
2018-08-27T11:52:07.337Z,65.63
2018-08-27T11:54:35.831Z,67.07
2018-08-27T11:57:04.251Z,65.60
2018-08-27T11:59:32.688Z,66.10
2018-08-27T12:02:01.201Z,63.94
2018-08-27T12:04:29.749Z,65.25
2018-08-27T12:06:58.241Z,63.33
2018-08-27T12:09:26.653Z,62.39
2018-08-27T12:11:55.105Z,64.12
2018-08-27T12:14:23.572Z,62.17
2018-08-27T12:16:52.066Z,63.09
2018-08-27T12:19:20.426Z,62.87
2018-08-27T12:21:48.947Z,62.32
2018-08-27T12:24:17.346Z,62.82
2018-08-27T12:26:45.971Z,61.75
2018-08-27T12:29:14.405Z,61.73
2018-08-27T12:31:42.853Z,62.78
2018-08-27T12:34:11.247Z,61.38
2018-08-27T12:36:39.704Z,62.00
2018-08-27T12:39:09.584Z,60.28
2018-08-27T12:41:38.444Z,59.46
2018-08-27T12:44:06.931Z,57.27
2018-08-27T12:46:35.313Z,59.29
2018-08-27T12:49:04.606Z,58.58
2018-08-27T12:51:33.098Z,58.46
2018-08-27T12:54:01.536Z,58.93
2018-08-27T12:56:30.150Z,56.75
2018-08-27T12:58:58.666Z,55.84
2018-08-27T13:01:27.026Z,56.63
2018-08-27T13:03:55.504Z,57.84
2018-08-27T13:06:23.931Z,57.32
2018-08-27T13:08:52.386Z,57.60
2018-08-27T13:11:20.970Z,58.85
2018-08-27T13:13:49.334Z,57.75
2018-08-27T13:16:17.832Z,57.77
2018-08-27T13:18:47.099Z,56.56
2018-08-27T13:21:20.737Z,54.10
2018-08-27T13:23:49.376Z,53.05
2018-08-27T13:26:17.792Z,53.24
2018-08-27T13:28:46.229Z,54.14
2018-08-27T13:31:14.836Z,53.86
2018-08-27T13:33:43.746Z,54.61
2018-08-27T13:36:12.358Z,55.00
2018-08-27T13:38:40.749Z,54.94
2018-08-27T13:41:09.301Z,56.16
2018-08-27T13:43:37.755Z,57.17
2018-08-27T13:46:06.173Z,57.44
2018-08-27T13:48:34.983Z,57.74
2018-08-27T13:51:03.404Z,58.31
2018-08-27T13:53:32.305Z,57.03
2018-08-27T13:56:00.729Z,56.41
2018-08-27T13:58:29.115Z,56.45
2018-08-27T14:00:57.533Z,56.89
2018-08-27T14:03:25.967Z,54.78
2018-08-27T14:05:54.380Z,56.77
2018-08-27T14:08:23.653Z,55.26
2018-08-27T14:10:52.172Z,56.45
2018-08-27T14:13:20.557Z,57.63
2018-08-27T14:15:50.197Z,56.06
2018-08-27T14:18:18.503Z,56.06
2018-08-27T14:20:47.042Z,56.17
2018-08-27T14:23:15.410Z,55.56
2018-08-27T14:25:44.678Z,56.45
2018-08-27T14:28:13.283Z,57.42
2018-08-27T14:30:41.729Z,57.35
2018-08-27T14:33:11.198Z,56.20
2018-08-27T14:35:39.621Z,55.87
2018-08-27T14:38:09.704Z,56.29
2018-08-27T14:40:39.757Z,57.11
2018-08-27T14:43:09.145Z,55.84
2018-08-27T14:45:37.557Z,55.12
2018-08-27T14:48:06.128Z,55.94
2018-08-27T14:50:34.494Z,56.10
2018-08-27T14:53:03.151Z,56.03
2018-08-27T14:55:31.589Z,55.79
2018-08-27T14:58:00.033Z,55.62
2018-08-27T15:00:28.449Z,55.55
2018-08-27T15:02:56.918Z,55.77
2018-08-27T15:05:25.333Z,56.12
2018-08-27T15:07:53.749Z,55.93
2018-08-27T15:10:22.181Z,56.01
2018-08-27T15:12:52.460Z,55.50
2018-08-27T15:15:21.127Z,56.92
2018-08-27T15:17:49.488Z,56.48
2018-08-27T15:20:17.960Z,56.30
2018-08-27T15:22:47.357Z,56.41
2018-08-27T15:25:16.019Z,56.36
2018-08-27T15:27:44.462Z,56.24
2018-08-27T15:30:13.454Z,56.19
2018-08-27T15:32:41.963Z,56.33
2018-08-27T15:35:10.383Z,57.01
2018-08-27T15:37:38.845Z,56.98
2018-08-27T15:40:07.721Z,57.86
2018-08-27T15:42:36.721Z,57.49
2018-08-27T15:45:07.169Z,57.45
2018-08-27T15:47:36.386Z,57.41
2018-08-27T15:50:05.015Z,57.46
2018-08-27T15:52:33.325Z,57.89
2018-08-27T15:55:01.726Z,57.78
2018-08-27T15:57:35.513Z,57.55
2018-08-27T16:00:04.275Z,58.48
2018-08-27T16:02:32.634Z,57.56
2018-08-27T16:05:01.118Z,57.85
2018-08-27T16:07:29.484Z,57.40
2018-08-27T16:09:57.889Z,57.64
2018-08-27T16:12:26.714Z,58.11
2018-08-27T16:14:55.113Z,58.49
2018-08-27T16:17:23.506Z,57.47
2018-08-27T16:19:51.974Z,57.92
2018-08-27T16:22:20.388Z,59.12
2018-08-27T16:24:48.829Z,57.89
2018-08-27T16:27:17.364Z,58.87
2018-08-27T16:29:45.820Z,59.33
2018-08-27T16:32:14.310Z,60.48
2018-08-27T16:34:42.719Z,58.98
2018-08-27T16:37:11.545Z,59.27
2018-08-27T16:39:40.194Z,59.00
2018-08-27T16:42:08.389Z,58.90
2018-08-27T16:44:36.804Z,59.13
2018-08-27T16:47:05.272Z,59.91
2018-08-27T16:49:33.774Z,60.27
2018-08-27T16:52:02.224Z,59.72
2018-08-27T16:54:30.665Z,60.65
2018-08-27T16:56:59.157Z,60.10
2018-08-27T16:59:27.644Z,60.43
2018-08-27T17:01:56.104Z,59.83
2018-08-27T17:04:25.536Z,60.49
2018-08-27T17:06:53.993Z,59.50
2018-08-27T17:09:22.438Z,60.65
2018-08-27T17:11:50.861Z,60.87
2018-08-27T17:14:19.306Z,61.82
2018-08-27T17:16:47.763Z,61.72
2018-08-27T17:19:16.251Z,62.25
2018-08-27T17:21:45.444Z,62.39
2018-08-27T17:24:14.324Z,62.33
2018-08-27T17:26:43.177Z,63.01
2018-08-27T17:29:12.097Z,62.61
2018-08-27T17:31:40.532Z,63.13
2018-08-27T17:34:09.057Z,63.86
2018-08-27T17:36:37.640Z,63.46
2018-08-27T17:39:08.947Z,64.26
2018-08-27T17:41:37.996Z,64.08
2018-08-27T17:44:06.889Z,65.08
2018-08-27T17:46:35.522Z,64.30
2018-08-27T17:49:04.133Z,64.14
2018-08-27T17:51:32.826Z,63.71
2018-08-27T17:54:01.280Z,63.57
2018-08-27T17:56:29.768Z,64.01
2018-08-27T17:58:58.200Z,64.97
2018-08-27T18:01:26.791Z,65.21
2018-08-27T18:03:55.420Z,64.59
2018-08-27T18:06:23.917Z,65.18
2018-08-27T18:08:52.541Z,65.46
2018-08-27T18:11:21.248Z,66.29
2018-08-27T18:13:49.712Z,65.86
2018-08-27T18:16:18.215Z,66.36
2018-08-27T18:18:48.421Z,66.45
2018-08-27T18:21:17.129Z,66.67
2018-08-27T18:23:45.571Z,66.09
2018-08-27T18:26:14.296Z,66.40
2018-08-27T18:28:42.862Z,65.46
2018-08-27T18:31:11.534Z,66.46
2018-08-27T18:33:40.354Z,66.50
2018-08-27T18:36:08.816Z,66.80
2018-08-27T18:38:37.528Z,66.53
2018-08-27T18:41:06.238Z,66.79
2018-08-27T18:43:35.024Z,66.15
2018-08-27T18:46:03.488Z,66.04
2018-08-27T18:48:32.128Z,66.05
2018-08-27T18:51:00.958Z,67.26
2018-08-27T18:53:30.445Z,66.95
2018-08-27T18:55:59.208Z,66.56
2018-08-27T18:58:27.715Z,66.77
2018-08-27T19:00:56.507Z,67.38
2018-08-27T19:03:25.273Z,66.97
2018-08-27T19:05:54.012Z,67.53
2018-08-27T19:08:22.794Z,67.79
2018-08-27T19:10:51.587Z,67.60
2018-08-27T19:13:20.382Z,67.25
2018-08-27T19:15:50.338Z,67.95
2018-08-27T19:18:19.115Z,67.48
2018-08-27T19:20:47.964Z,68.29
2018-08-27T19:23:16.780Z,67.73
2018-08-27T19:25:47.794Z,68.04
2018-08-27T19:28:16.591Z,68.28
2018-08-27T19:30:45.348Z,67.85
2018-08-27T19:33:14.134Z,68.76
2018-08-27T19:35:43.098Z,68.12
2018-08-27T19:38:11.750Z,67.67
2018-08-27T19:40:40.452Z,66.84
2018-08-27T19:43:09.217Z,66.96
2018-08-27T19:45:38.041Z,66.85
2018-08-27T19:48:06.601Z,67.15
2018-08-27T19:50:35.658Z,67.21
2018-08-27T19:53:04.112Z,66.89
2018-08-27T19:55:32.537Z,67.17
2018-08-27T19:58:00.986Z,66.64
2018-08-27T20:00:29.597Z,66.89
2018-08-27T20:02:58.028Z,66.95
2018-08-27T20:05:27.208Z,66.91
2018-08-27T20:07:55.990Z,67.19
2018-08-27T20:10:24.505Z,67.21
2018-08-27T20:12:53.624Z,68.86
2018-08-27T20:15:22.045Z,68.33
2018-08-27T20:17:50.479Z,69.14
2018-08-27T20:20:19.007Z,69.94
2018-08-27T20:22:48.400Z,68.88
2018-08-27T20:25:16.823Z,68.98
2018-08-27T20:27:45.317Z,69.83
2018-08-27T20:30:13.701Z,70.96
2018-08-27T20:32:42.102Z,70.73
2018-08-27T20:35:10.526Z,71.40
2018-08-27T20:37:38.919Z,70.78
2018-08-27T20:40:07.468Z,71.34
2018-08-27T20:42:35.929Z,71.39
2018-08-27T20:45:04.548Z,73.19
2018-08-27T20:47:32.899Z,70.63
2018-08-27T20:50:01.392Z,71.23
2018-08-27T20:52:29.840Z,69.81
2018-08-27T20:54:58.408Z,69.98
2018-08-27T20:57:26.907Z,70.50
2018-08-27T20:59:55.329Z,70.26
2018-08-27T21:02:23.757Z,72.22
2018-08-27T21:04:52.182Z,72.01
2018-08-27T21:07:20.635Z,71.94
2018-08-27T21:09:49.070Z,71.86
2018-08-27T21:12:17.564Z,72.66
2018-08-27T21:15:08.744Z,71.90
2018-08-27T21:17:37.845Z,72.00
2018-08-27T21:20:08.452Z,72.95
2018-08-27T21:22:36.935Z,72.15
2018-08-27T21:25:06.383Z,71.74
2018-08-27T21:27:35.415Z,72.22
2018-08-27T21:30:03.984Z,71.80
2018-08-27T21:32:32.452Z,72.01
2018-08-27T21:35:00.828Z,72.44
2018-08-27T21:37:29.337Z,72.77
2018-08-27T21:39:58.658Z,73.06
2018-08-27T21:42:27.109Z,72.91
2018-08-27T21:44:55.589Z,72.74
2018-08-27T21:47:24.016Z,73.11
2018-08-27T21:49:52.539Z,73.14
2018-08-27T21:52:20.986Z,73.31
2018-08-27T21:54:49.448Z,73.93
2018-08-27T21:57:17.796Z,74.50
2018-08-27T21:59:46.201Z,73.97
2018-08-27T22:02:19.915Z,74.17
2018-08-27T22:04:48.359Z,74.11
2018-08-27T22:07:16.868Z,73.73
2018-08-27T22:09:45.356Z,74.56
2018-08-27T22:12:13.781Z,74.18
2018-08-27T22:14:42.192Z,74.76
2018-08-27T22:17:10.863Z,75.06
2018-08-27T22:19:40.158Z,74.79
2018-08-27T22:22:08.660Z,74.25
2018-08-27T22:24:37.021Z,75.22
2018-08-27T22:27:05.508Z,75.81
2018-08-27T22:29:33.949Z,76.52
2018-08-27T22:32:02.418Z,75.94
2018-08-27T22:34:31.253Z,76.20
2018-08-27T22:36:59.941Z,76.87
2018-08-27T22:39:28.356Z,77.02
2018-08-27T22:41:56.866Z,76.86
2018-08-27T22:44:25.257Z,77.52
2018-08-27T22:46:53.656Z,77.67
2018-08-27T22:49:22.067Z,77.76
2018-08-27T22:51:50.510Z,77.85
2018-08-27T22:54:18.941Z,77.48
2018-08-27T22:56:47.340Z,76.63
2018-08-27T22:59:15.766Z,77.27
2018-08-27T23:01:44.344Z,76.39
2018-08-27T23:05:16.825Z,75.88
2018-08-27T23:07:45.341Z,76.38
2018-08-27T23:10:13.745Z,76.72
2018-08-27T23:12:42.141Z,76.22
2018-08-27T23:15:10.644Z,76.29
2018-08-27T23:17:39.032Z,76.45
2018-08-27T23:20:07.514Z,76.10
2018-08-27T23:22:36.881Z,76.47
2018-08-27T23:25:05.672Z,76.88
2018-08-27T23:27:34.154Z,76.60
2018-08-27T23:30:02.591Z,77.16
2018-08-27T23:32:30.968Z,76.80
2018-08-27T23:34:59.357Z,77.16
2018-08-27T23:37:27.859Z,77.42
2018-08-27T23:39:56.287Z,78.60
2018-08-27T23:42:24.751Z,77.82
2018-08-27T23:44:53.132Z,77.97
2018-08-27T23:47:21.536Z,78.09
2018-08-27T23:49:50.085Z,77.66
2018-08-27T23:52:18.521Z,78.33
2018-08-27T23:54:46.962Z,78.21
2018-08-27T23:57:15.341Z,78.86
2018-08-27T23:59:43.720Z,78.63
